sensor_id;sensor_type;location;lat;lon;timestamp;P1;durP1;ratioP1;P2;durP2;ratioP2
39958;SDS011;25639;53.634;9.880;2023-02-23T00:01:17;47.42;;;20.63;;
39958;SDS011;25639;53.634;9.880;2023-02-23T00:03:45;47.25;;;20.80;;
39958;SDS011;25639;53.634;9.880;2023-02-23T00:06:13;48.17;;;19.98;;
39958;SDS011;25639;53.634;9.880;2023-02-23T00:08:39;48.05;;;20.70;;
39958;SDS011;25639;53.634;9.880;2023-02-23T00:11:06;50.70;;;19.45;;
39958;SDS011;25639;53.634;9.880;2023-02-23T00:13:33;47.42;;;20.83;;
39958;SDS011;25639;53.634;9.880;2023-02-23T00:16:08;47.83;;;20.83;;
39958;SDS011;25639;53.634;9.880;2023-02-23T00:18:41;51.08;;;21.27;;
39958;SDS011;25639;53.634;9.880;2023-02-23T00:21:31;49.00;;;21.27;;
39958;SDS011;25639;53.634;9.880;2023-02-23T00:24:03;47.88;;;20.38;;
39958;SDS011;25639;53.634;9.880;2023-02-23T00:26:32;56.47;;;22.07;;
39958;SDS011;25639;53.634;9.880;2023-02-23T00:28:59;54.72;;;21.10;;
39958;SDS011;25639;53.634;9.880;2023-02-23T00:31:26;46.47;;;19.35;;
39958;SDS011;25639;53.634;9.880;2023-02-23T00:33:53;54.03;;;21.75;;
39958;SDS011;25639;53.634;9.880;2023-02-23T00:36:21;48.40;;;20.58;;
39958;SDS011;25639;53.634;9.880;2023-02-23T00:38:51;49.15;;;20.20;;
39958;SDS011;25639;53.634;9.880;2023-02-23T00:41:18;46.85;;;20.02;;
39958;SDS011;25639;53.634;9.880;2023-02-23T00:43:48;51.05;;;21.50;;
39958;SDS011;25639;53.634;9.880;2023-02-23T00:46:17;52.78;;;21.67;;
39958;SDS011;25639;53.634;9.880;2023-02-23T00:48:45;47.35;;;19.50;;
39958;SDS011;25639;53.634;9.880;2023-02-23T00:51:12;50.28;;;21.25;;
39958;SDS011;25639;53.634;9.880;2023-02-23T00:53:38;52.08;;;20.33;;
39958;SDS011;25639;53.634;9.880;2023-02-23T00:56:04;54.58;;;21.02;;
39958;SDS011;25639;53.634;9.880;2023-02-23T00:58:30;41.45;;;19.58;;
39958;SDS011;25639;53.634;9.880;2023-02-23T01:00:56;44.50;;;21.08;;
39958;SDS011;25639;53.634;9.880;2023-02-23T01:03:23;51.75;;;20.70;;
39958;SDS011;25639;53.634;9.880;2023-02-23T01:05:49;50.25;;;20.52;;
39958;SDS011;25639;53.634;9.880;2023-02-23T01:08:15;46.78;;;20.58;;
39958;SDS011;25639;53.634;9.880;2023-02-23T01:10:41;48.30;;;19.95;;
39958;SDS011;25639;53.634;9.880;2023-02-23T01:13:09;53.92;;;20.92;;
39958;SDS011;25639;53.634;9.880;2023-02-23T01:15:41;46.00;;;19.60;;
39958;SDS011;25639;53.634;9.880;2023-02-23T01:18:08;46.97;;;20.00;;
39958;SDS011;25639;53.634;9.880;2023-02-23T01:20:34;46.22;;;20.02;;
39958;SDS011;25639;53.634;9.880;2023-02-23T01:23:00;44.17;;;18.70;;
39958;SDS011;25639;53.634;9.880;2023-02-23T01:25:27;44.90;;;19.83;;
39958;SDS011;25639;53.634;9.880;2023-02-23T01:27:53;43.90;;;19.45;;
39958;SDS011;25639;53.634;9.880;2023-02-23T01:30:19;47.00;;;19.73;;
39958;SDS011;25639;53.634;9.880;2023-02-23T01:32:44;48.13;;;20.10;;
39958;SDS011;25639;53.634;9.880;2023-02-23T01:35:10;44.35;;;19.10;;
39958;SDS011;25639;53.634;9.880;2023-02-23T01:37:37;45.58;;;20.10;;
39958;SDS011;25639;53.634;9.880;2023-02-23T01:40:04;44.88;;;19.25;;
39958;SDS011;25639;53.634;9.880;2023-02-23T01:42:39;39.75;;;18.52;;
39958;SDS011;25639;53.634;9.880;2023-02-23T01:48:19;50.70;;;20.80;;
39958;SDS011;25639;53.634;9.880;2023-02-23T01:50:48;54.95;;;20.75;;
39958;SDS011;25639;53.634;9.880;2023-02-23T01:53:18;53.25;;;20.90;;
39958;SDS011;25639;53.634;9.880;2023-02-23T01:55:51;52.05;;;22.30;;
39958;SDS011;25639;53.634;9.880;2023-02-23T01:58:20;54.08;;;20.83;;
39958;SDS011;25639;53.634;9.880;2023-02-23T02:00:49;54.22;;;22.13;;
39958;SDS011;25639;53.634;9.880;2023-02-23T02:03:41;55.80;;;22.30;;
39958;SDS011;25639;53.634;9.880;2023-02-23T02:06:11;56.15;;;21.77;;
39958;SDS011;25639;53.634;9.880;2023-02-23T02:08:40;59.45;;;22.02;;
39958;SDS011;25639;53.634;9.880;2023-02-23T02:11:14;56.70;;;21.95;;
39958;SDS011;25639;53.634;9.880;2023-02-23T02:13:55;56.38;;;22.27;;
39958;SDS011;25639;53.634;9.880;2023-02-23T02:25:32;54.55;;;22.58;;
39958;SDS011;25639;53.634;9.880;2023-02-23T02:39:27;58.08;;;22.33;;
39958;SDS011;25639;53.634;9.880;2023-02-23T02:50:09;59.38;;;22.48;;
39958;SDS011;25639;53.634;9.880;2023-02-23T02:52:48;55.25;;;21.05;;
39958;SDS011;25639;53.634;9.880;2023-02-23T02:55:23;49.97;;;20.63;;
39958;SDS011;25639;53.634;9.880;2023-02-23T02:57:52;53.00;;;21.42;;
39958;SDS011;25639;53.634;9.880;2023-02-23T03:00:28;55.65;;;21.60;;
39958;SDS011;25639;53.634;9.880;2023-02-23T03:03:37;50.47;;;19.75;;
39958;SDS011;25639;53.634;9.880;2023-02-23T03:06:26;51.20;;;20.27;;
39958;SDS011;25639;53.634;9.880;2023-02-23T03:09:23;46.17;;;20.13;;
39958;SDS011;25639;53.634;9.880;2023-02-23T03:12:19;45.25;;;19.92;;
39958;SDS011;25639;53.634;9.880;2023-02-23T03:17:59;46.38;;;19.60;;
39958;SDS011;25639;53.634;9.880;2023-02-23T03:21:04;48.60;;;20.05;;
39958;SDS011;25639;53.634;9.880;2023-02-23T03:33:36;51.33;;;19.58;;
39958;SDS011;25639;53.634;9.880;2023-02-23T03:36:26;52.45;;;22.08;;
39958;SDS011;25639;53.634;9.880;2023-02-23T03:39:18;48.63;;;20.35;;
39958;SDS011;25639;53.634;9.880;2023-02-23T03:42:05;46.63;;;20.45;;
39958;SDS011;25639;53.634;9.880;2023-02-23T03:44:54;47.88;;;19.77;;
39958;SDS011;25639;53.634;9.880;2023-02-23T03:47:40;53.35;;;21.65;;
39958;SDS011;25639;53.634;9.880;2023-02-23T03:50:33;52.88;;;21.73;;
39958;SDS011;25639;53.634;9.880;2023-02-23T03:53:21;56.10;;;20.90;;
39958;SDS011;25639;53.634;9.880;2023-02-23T03:56:09;47.42;;;20.70;;
39958;SDS011;25639;53.634;9.880;2023-02-23T03:58:57;55.25;;;22.38;;
39958;SDS011;25639;53.634;9.880;2023-02-23T04:01:43;51.20;;;21.25;;
39958;SDS011;25639;53.634;9.880;2023-02-23T04:04:28;41.83;;;18.85;;
39958;SDS011;25639;53.634;9.880;2023-02-23T04:07:15;48.10;;;20.00;;
39958;SDS011;25639;53.634;9.880;2023-02-23T04:10:01;55.22;;;22.08;;
39958;SDS011;25639;53.634;9.880;2023-02-23T04:12:55;50.53;;;20.50;;
39958;SDS011;25639;53.634;9.880;2023-02-23T04:18:12;57.88;;;21.77;;
39958;SDS011;25639;53.634;9.880;2023-02-23T04:20:40;48.55;;;21.02;;
39958;SDS011;25639;53.634;9.880;2023-02-23T04:23:05;47.35;;;20.70;;
39958;SDS011;25639;53.634;9.880;2023-02-23T04:25:30;49.28;;;20.52;;
39958;SDS011;25639;53.634;9.880;2023-02-23T04:27:56;47.17;;;20.02;;
39958;SDS011;25639;53.634;9.880;2023-02-23T04:30:21;53.35;;;20.50;;
39958;SDS011;25639;53.634;9.880;2023-02-23T04:32:49;45.42;;;19.85;;
39958;SDS011;25639;53.634;9.880;2023-02-23T04:35:16;55.03;;;21.88;;
39958;SDS011;25639;53.634;9.880;2023-02-23T04:37:41;55.58;;;21.67;;
39958;SDS011;25639;53.634;9.880;2023-02-23T04:40:06;44.30;;;20.40;;
39958;SDS011;25639;53.634;9.880;2023-02-23T04:42:32;46.88;;;20.25;;
39958;SDS011;25639;53.634;9.880;2023-02-23T04:44:58;44.00;;;19.10;;
39958;SDS011;25639;53.634;9.880;2023-02-23T04:47:23;39.97;;;17.98;;
39958;SDS011;25639;53.634;9.880;2023-02-23T04:49:49;41.20;;;18.65;;
39958;SDS011;25639;53.634;9.880;2023-02-23T04:52:14;39.33;;;18.25;;
39958;SDS011;25639;53.634;9.880;2023-02-23T04:54:39;40.50;;;19.10;;
39958;SDS011;25639;53.634;9.880;2023-02-23T04:57:05;36.35;;;17.38;;
39958;SDS011;25639;53.634;9.880;2023-02-23T04:59:31;35.53;;;17.65;;
39958;SDS011;25639;53.634;9.880;2023-02-23T05:01:56;34.63;;;16.65;;
39958;SDS011;25639;53.634;9.880;2023-02-23T05:04:22;40.35;;;17.35;;
39958;SDS011;25639;53.634;9.880;2023-02-23T05:06:47;48.65;;;20.08;;
39958;SDS011;25639;53.634;9.880;2023-02-23T05:09:13;45.80;;;19.70;;
39958;SDS011;25639;53.634;9.880;2023-02-23T05:11:38;45.00;;;20.45;;
39958;SDS011;25639;53.634;9.880;2023-02-23T05:14:04;43.85;;;18.77;;
39958;SDS011;25639;53.634;9.880;2023-02-23T05:16:29;38.85;;;16.88;;
39958;SDS011;25639;53.634;9.880;2023-02-23T05:18:55;38.15;;;17.33;;
39958;SDS011;25639;53.634;9.880;2023-02-23T05:21:20;35.00;;;16.13;;
39958;SDS011;25639;53.634;9.880;2023-02-23T05:23:46;39.88;;;17.42;;
39958;SDS011;25639;53.634;9.880;2023-02-23T05:26:12;43.60;;;19.77;;
39958;SDS011;25639;53.634;9.880;2023-02-23T05:28:39;48.85;;;21.50;;
39958;SDS011;25639;53.634;9.880;2023-02-23T05:31:05;45.40;;;19.33;;
39958;SDS011;25639;53.634;9.880;2023-02-23T05:33:31;49.40;;;20.77;;
39958;SDS011;25639;53.634;9.880;2023-02-23T05:35:57;56.55;;;23.27;;
39958;SDS011;25639;53.634;9.880;2023-02-23T05:38:22;52.58;;;22.55;;
39958;SDS011;25639;53.634;9.880;2023-02-23T05:40:48;57.38;;;22.15;;
39958;SDS011;25639;53.634;9.880;2023-02-23T05:43:13;50.97;;;21.38;;
39958;SDS011;25639;53.634;9.880;2023-02-23T05:45:42;53.17;;;21.00;;
39958;SDS011;25639;53.634;9.880;2023-02-23T05:48:09;64.50;;;24.00;;
39958;SDS011;25639;53.634;9.880;2023-02-23T05:50:37;64.80;;;24.70;;
39958;SDS011;25639;53.634;9.880;2023-02-23T05:53:03;58.70;;;24.02;;
39958;SDS011;25639;53.634;9.880;2023-02-23T05:55:28;61.35;;;23.60;;
39958;SDS011;25639;53.634;9.880;2023-02-23T05:57:54;68.72;;;25.48;;
39958;SDS011;25639;53.634;9.880;2023-02-23T06:00:19;64.18;;;26.20;;
39958;SDS011;25639;53.634;9.880;2023-02-23T06:02:45;61.58;;;26.10;;
39958;SDS011;25639;53.634;9.880;2023-02-23T06:05:11;65.80;;;25.13;;
39958;SDS011;25639;53.634;9.880;2023-02-23T06:07:37;63.97;;;26.10;;
39958;SDS011;25639;53.634;9.880;2023-02-23T06:10:03;63.47;;;24.98;;
39958;SDS011;25639;53.634;9.880;2023-02-23T06:12:29;69.55;;;26.10;;
39958;SDS011;25639;53.634;9.880;2023-02-23T06:14:54;72.45;;;26.92;;
39958;SDS011;25639;53.634;9.880;2023-02-23T06:17:21;76.35;;;26.77;;
39958;SDS011;25639;53.634;9.880;2023-02-23T06:19:46;76.57;;;27.42;;
39958;SDS011;25639;53.634;9.880;2023-02-23T06:22:11;70.20;;;27.00;;
39958;SDS011;25639;53.634;9.880;2023-02-23T06:24:36;76.65;;;28.40;;
39958;SDS011;25639;53.634;9.880;2023-02-23T06:27:02;82.75;;;27.92;;
39958;SDS011;25639;53.634;9.880;2023-02-23T06:29:28;77.30;;;28.05;;
39958;SDS011;25639;53.634;9.880;2023-02-23T06:31:53;76.63;;;27.50;;
39958;SDS011;25639;53.634;9.880;2023-02-23T06:34:18;70.78;;;26.17;;
39958;SDS011;25639;53.634;9.880;2023-02-23T06:36:43;77.65;;;26.67;;
39958;SDS011;25639;53.634;9.880;2023-02-23T06:39:09;75.45;;;26.85;;
39958;SDS011;25639;53.634;9.880;2023-02-23T06:41:35;74.50;;;27.80;;
39958;SDS011;25639;53.634;9.880;2023-02-23T06:44:00;79.35;;;27.58;;
39958;SDS011;25639;53.634;9.880;2023-02-23T06:46:26;91.07;;;29.52;;
39958;SDS011;25639;53.634;9.880;2023-02-23T06:48:57;91.60;;;29.45;;
39958;SDS011;25639;53.634;9.880;2023-02-23T06:51:23;92.82;;;31.92;;
39958;SDS011;25639;53.634;9.880;2023-02-23T06:53:49;98.20;;;31.63;;
39958;SDS011;25639;53.634;9.880;2023-02-23T06:56:17;108.38;;;32.25;;
39958;SDS011;25639;53.634;9.880;2023-02-23T06:58:43;118.72;;;35.30;;
39958;SDS011;25639;53.634;9.880;2023-02-23T07:01:08;123.32;;;35.20;;
39958;SDS011;25639;53.634;9.880;2023-02-23T07:03:34;117.70;;;34.97;;
39958;SDS011;25639;53.634;9.880;2023-02-23T07:05:59;126.30;;;35.45;;
39958;SDS011;25639;53.634;9.880;2023-02-23T07:08:25;115.50;;;35.10;;
39958;SDS011;25639;53.634;9.880;2023-02-23T07:10:51;118.47;;;35.25;;
39958;SDS011;25639;53.634;9.880;2023-02-23T07:13:16;114.80;;;33.42;;
39958;SDS011;25639;53.634;9.880;2023-02-23T07:15:41;114.93;;;33.63;;
39958;SDS011;25639;53.634;9.880;2023-02-23T07:18:07;108.75;;;32.92;;
39958;SDS011;25639;53.634;9.880;2023-02-23T07:20:32;103.82;;;30.60;;
39958;SDS011;25639;53.634;9.880;2023-02-23T07:22:58;92.97;;;30.23;;
39958;SDS011;25639;53.634;9.880;2023-02-23T07:25:27;107.95;;;32.28;;
39958;SDS011;25639;53.634;9.880;2023-02-23T07:27:52;105.53;;;33.90;;
39958;SDS011;25639;53.634;9.880;2023-02-23T07:30:19;108.03;;;31.70;;
39958;SDS011;25639;53.634;9.880;2023-02-23T07:32:48;119.43;;;35.65;;
39958;SDS011;25639;53.634;9.880;2023-02-23T07:35:14;109.53;;;33.65;;
39958;SDS011;25639;53.634;9.880;2023-02-23T07:37:40;120.13;;;35.25;;
39958;SDS011;25639;53.634;9.880;2023-02-23T07:40:06;109.93;;;34.72;;
39958;SDS011;25639;53.634;9.880;2023-02-23T07:42:32;119.35;;;35.00;;
39958;SDS011;25639;53.634;9.880;2023-02-23T07:44:57;121.85;;;35.70;;
39958;SDS011;25639;53.634;9.880;2023-02-23T07:47:22;118.55;;;34.42;;
39958;SDS011;25639;53.634;9.880;2023-02-23T07:49:54;129.93;;;34.55;;
39958;SDS011;25639;53.634;9.880;2023-02-23T07:52:20;119.88;;;36.08;;
39958;SDS011;25639;53.634;9.880;2023-02-23T07:54:45;119.15;;;35.28;;
39958;SDS011;25639;53.634;9.880;2023-02-23T07:57:10;114.90;;;34.72;;
39958;SDS011;25639;53.634;9.880;2023-02-23T07:59:36;127.90;;;34.40;;
39958;SDS011;25639;53.634;9.880;2023-02-23T08:02:03;117.25;;;35.38;;
39958;SDS011;25639;53.634;9.880;2023-02-23T08:04:28;128.93;;;38.15;;
39958;SDS011;25639;53.634;9.880;2023-02-23T08:06:53;116.68;;;34.92;;
39958;SDS011;25639;53.634;9.880;2023-02-23T08:09:19;114.47;;;34.25;;
39958;SDS011;25639;53.634;9.880;2023-02-23T08:11:44;117.50;;;36.50;;
39958;SDS011;25639;53.634;9.880;2023-02-23T08:14:10;111.63;;;35.20;;
39958;SDS011;25639;53.634;9.880;2023-02-23T08:16:35;115.78;;;36.00;;
39958;SDS011;25639;53.634;9.880;2023-02-23T08:19:00;119.47;;;35.67;;
39958;SDS011;25639;53.634;9.880;2023-02-23T08:21:26;106.45;;;34.47;;
39958;SDS011;25639;53.634;9.880;2023-02-23T08:23:53;110.43;;;33.53;;
39958;SDS011;25639;53.634;9.880;2023-02-23T08:26:19;111.55;;;35.05;;
39958;SDS011;25639;53.634;9.880;2023-02-23T08:28:44;117.40;;;35.50;;
39958;SDS011;25639;53.634;9.880;2023-02-23T08:31:13;123.47;;;36.17;;
39958;SDS011;25639;53.634;9.880;2023-02-23T08:33:44;126.80;;;37.22;;
39958;SDS011;25639;53.634;9.880;2023-02-23T08:36:10;127.75;;;38.03;;
39958;SDS011;25639;53.634;9.880;2023-02-23T08:38:35;131.40;;;39.08;;
39958;SDS011;25639;53.634;9.880;2023-02-23T08:41:03;135.20;;;38.50;;
39958;SDS011;25639;53.634;9.880;2023-02-23T08:43:29;133.73;;;37.30;;
39958;SDS011;25639;53.634;9.880;2023-02-23T08:45:55;140.48;;;39.63;;
39958;SDS011;25639;53.634;9.880;2023-02-23T08:48:21;138.25;;;40.55;;
39958;SDS011;25639;53.634;9.880;2023-02-23T08:50:46;132.52;;;41.08;;
39958;SDS011;25639;53.634;9.880;2023-02-23T08:53:13;142.20;;;39.58;;
39958;SDS011;25639;53.634;9.880;2023-02-23T08:55:39;144.05;;;42.40;;
39958;SDS011;25639;53.634;9.880;2023-02-23T08:58:06;150.10;;;42.10;;
39958;SDS011;25639;53.634;9.880;2023-02-23T09:00:33;149.60;;;43.65;;
39958;SDS011;25639;53.634;9.880;2023-02-23T09:02:58;140.57;;;41.78;;
39958;SDS011;25639;53.634;9.880;2023-02-23T09:05:23;139.90;;;41.75;;
39958;SDS011;25639;53.634;9.880;2023-02-23T09:07:49;171.00;;;45.97;;
39958;SDS011;25639;53.634;9.880;2023-02-23T09:10:16;159.93;;;45.53;;
39958;SDS011;25639;53.634;9.880;2023-02-23T09:12:44;151.07;;;44.97;;
39958;SDS011;25639;53.634;9.880;2023-02-23T09:15:09;154.27;;;45.38;;
39958;SDS011;25639;53.634;9.880;2023-02-23T09:17:35;173.95;;;48.78;;
39958;SDS011;25639;53.634;9.880;2023-02-23T09:20:00;173.48;;;48.75;;
39958;SDS011;25639;53.634;9.880;2023-02-23T09:22:26;184.93;;;49.63;;
39958;SDS011;25639;53.634;9.880;2023-02-23T09:24:51;202.65;;;51.08;;
39958;SDS011;25639;53.634;9.880;2023-02-23T09:27:16;196.38;;;52.80;;
39958;SDS011;25639;53.634;9.880;2023-02-23T09:29:42;209.10;;;53.13;;
39958;SDS011;25639;53.634;9.880;2023-02-23T09:32:08;208.98;;;54.65;;
39958;SDS011;25639;53.634;9.880;2023-02-23T09:34:34;215.57;;;53.35;;
39958;SDS011;25639;53.634;9.880;2023-02-23T09:37:03;237.80;;;55.13;;
39958;SDS011;25639;53.634;9.880;2023-02-23T09:39:29;226.13;;;52.42;;
39958;SDS011;25639;53.634;9.880;2023-02-23T09:42:09;246.95;;;55.75;;
39958;SDS011;25639;53.634;9.880;2023-02-23T09:50:26;230.75;;;51.85;;
39958;SDS011;25639;53.634;9.880;2023-02-23T09:53:14;222.50;;;51.55;;
39958;SDS011;25639;53.634;9.880;2023-02-23T09:55:49;220.13;;;49.85;;
39958;SDS011;25639;53.634;9.880;2023-02-23T09:58:19;222.77;;;50.83;;
39958;SDS011;25639;53.634;9.880;2023-02-23T10:00:50;218.48;;;52.88;;
39958;SDS011;25639;53.634;9.880;2023-02-23T10:05:58;212.05;;;50.08;;
39958;SDS011;25639;53.634;9.880;2023-02-23T10:11:19;213.18;;;50.20;;
39958;SDS011;25639;53.634;9.880;2023-02-23T10:16:42;188.05;;;47.40;;
39958;SDS011;25639;53.634;9.880;2023-02-23T10:19:31;199.85;;;48.28;;
39958;SDS011;25639;53.634;9.880;2023-02-23T10:22:05;203.13;;;47.10;;
39958;SDS011;25639;53.634;9.880;2023-02-23T10:24:36;213.27;;;49.20;;
39958;SDS011;25639;53.634;9.880;2023-02-23T10:29:36;222.80;;;51.53;;
39958;SDS011;25639;53.634;9.880;2023-02-23T10:32:11;182.45;;;43.72;;
39958;SDS011;25639;53.634;9.880;2023-02-23T10:34:44;193.05;;;45.00;;
39958;SDS011;25639;53.634;9.880;2023-02-23T10:37:12;219.90;;;47.40;;
39958;SDS011;25639;53.634;9.880;2023-02-23T10:39:40;205.52;;;47.72;;
39958;SDS011;25639;53.634;9.880;2023-02-23T10:42:11;187.73;;;42.67;;
39958;SDS011;25639;53.634;9.880;2023-02-23T10:44:42;183.10;;;42.80;;
39958;SDS011;25639;53.634;9.880;2023-02-23T10:47:13;189.82;;;43.15;;
39958;SDS011;25639;53.634;9.880;2023-02-23T10:49:45;163.88;;;39.55;;
39958;SDS011;25639;53.634;9.880;2023-02-23T10:52:32;175.35;;;40.42;;
39958;SDS011;25639;53.634;9.880;2023-02-23T10:55:04;153.43;;;36.90;;
39958;SDS011;25639;53.634;9.880;2023-02-23T10:57:32;144.88;;;37.10;;
39958;SDS011;25639;53.634;9.880;2023-02-23T11:02:44;147.45;;;38.47;;
39958;SDS011;25639;53.634;9.880;2023-02-23T11:08:13;148.23;;;36.65;;
39958;SDS011;25639;53.634;9.880;2023-02-23T11:10:43;145.70;;;37.47;;
39958;SDS011;25639;53.634;9.880;2023-02-23T11:13:39;138.38;;;36.92;;
39958;SDS011;25639;53.634;9.880;2023-02-23T11:16:13;138.00;;;36.80;;
39958;SDS011;25639;53.634;9.880;2023-02-23T11:18:41;137.60;;;35.13;;
39958;SDS011;25639;53.634;9.880;2023-02-23T11:21:16;134.32;;;36.17;;
39958;SDS011;25639;53.634;9.880;2023-02-23T11:23:47;136.13;;;36.17;;
39958;SDS011;25639;53.634;9.880;2023-02-23T11:26:23;138.60;;;35.80;;
39958;SDS011;25639;53.634;9.880;2023-02-23T11:28:58;132.35;;;36.83;;
39958;SDS011;25639;53.634;9.880;2023-02-23T11:31:36;130.88;;;36.00;;
39958;SDS011;25639;53.634;9.880;2023-02-23T11:34:02;133.20;;;34.90;;
39958;SDS011;25639;53.634;9.880;2023-02-23T11:36:30;137.68;;;36.05;;
39958;SDS011;25639;53.634;9.880;2023-02-23T11:39:17;128.45;;;33.35;;
39958;SDS011;25639;53.634;9.880;2023-02-23T11:41:44;136.60;;;36.13;;
39958;SDS011;25639;53.634;9.880;2023-02-23T11:44:20;127.25;;;34.83;;
39958;SDS011;25639;53.634;9.880;2023-02-23T11:46:46;117.38;;;33.95;;
39958;SDS011;25639;53.634;9.880;2023-02-23T11:49:23;128.20;;;33.83;;
39958;SDS011;25639;53.634;9.880;2023-02-23T11:51:54;129.30;;;34.83;;
39958;SDS011;25639;53.634;9.880;2023-02-23T11:56:49;116.97;;;33.05;;
39958;SDS011;25639;53.634;9.880;2023-02-23T11:59:16;121.78;;;34.03;;
39958;SDS011;25639;53.634;9.880;2023-02-23T12:01:45;122.13;;;33.95;;
39958;SDS011;25639;53.634;9.880;2023-02-23T12:04:24;109.05;;;32.08;;
39958;SDS011;25639;53.634;9.880;2023-02-23T12:06:55;123.00;;;34.45;;
39958;SDS011;25639;53.634;9.880;2023-02-23T12:10:01;121.13;;;31.92;;
39958;SDS011;25639;53.634;9.880;2023-02-23T12:12:31;127.60;;;33.92;;
39958;SDS011;25639;53.634;9.880;2023-02-23T12:17:54;127.80;;;33.30;;
39958;SDS011;25639;53.634;9.880;2023-02-23T12:20:25;115.22;;;32.80;;
39958;SDS011;25639;53.634;9.880;2023-02-23T12:23:01;116.43;;;33.30;;
39958;SDS011;25639;53.634;9.880;2023-02-23T12:25:33;111.73;;;33.53;;
39958;SDS011;25639;53.634;9.880;2023-02-23T12:28:16;117.33;;;31.17;;
39958;SDS011;25639;53.634;9.880;2023-02-23T12:30:54;110.68;;;30.95;;
39958;SDS011;25639;53.634;9.880;2023-02-23T12:33:26;117.72;;;32.60;;
39958;SDS011;25639;53.634;9.880;2023-02-23T12:36:54;112.03;;;33.00;;
39958;SDS011;25639;53.634;9.880;2023-02-23T12:41:38;111.32;;;31.65;;
39958;SDS011;25639;53.634;9.880;2023-02-23T12:46:56;112.90;;;33.28;;
39958;SDS011;25639;53.634;9.880;2023-02-23T12:49:36;108.15;;;30.58;;
39958;SDS011;25639;53.634;9.880;2023-02-23T12:52:10;106.13;;;31.50;;
39958;SDS011;25639;53.634;9.880;2023-02-23T12:54:42;106.93;;;31.00;;
39958;SDS011;25639;53.634;9.880;2023-02-23T13:06:10;106.38;;;30.55;;
39958;SDS011;25639;53.634;9.880;2023-02-23T13:08:57;97.32;;;27.10;;
39958;SDS011;25639;53.634;9.880;2023-02-23T13:11:38;103.32;;;28.08;;
39958;SDS011;25639;53.634;9.880;2023-02-23T13:14:20;91.70;;;27.55;;
39958;SDS011;25639;53.634;9.880;2023-02-23T13:17:03;96.05;;;28.55;;
39958;SDS011;25639;53.634;9.880;2023-02-23T13:28:02;94.25;;;27.73;;
39958;SDS011;25639;53.634;9.880;2023-02-23T13:30:30;93.53;;;26.42;;
39958;SDS011;25639;53.634;9.880;2023-02-23T13:32:56;87.63;;;26.40;;
39958;SDS011;25639;53.634;9.880;2023-02-23T13:35:26;88.95;;;26.27;;
39958;SDS011;25639;53.634;9.880;2023-02-23T13:40:52;86.07;;;25.70;;
39958;SDS011;25639;53.634;9.880;2023-02-23T13:43:32;91.70;;;26.60;;
39958;SDS011;25639;53.634;9.880;2023-02-23T13:51:05;84.88;;;24.20;;
39958;SDS011;25639;53.634;9.880;2023-02-23T13:53:45;90.30;;;26.02;;
39958;SDS011;25639;53.634;9.880;2023-02-23T13:56:22;71.78;;;21.67;;
39958;SDS011;25639;53.634;9.880;2023-02-23T13:59:08;80.22;;;22.92;;
39958;SDS011;25639;53.634;9.880;2023-02-23T14:01:43;78.30;;;22.88;;
39958;SDS011;25639;53.634;9.880;2023-02-23T14:07:00;76.55;;;21.05;;
39958;SDS011;25639;53.634;9.880;2023-02-23T14:09:33;69.25;;;19.98;;
39958;SDS011;25639;53.634;9.880;2023-02-23T14:12:15;72.32;;;20.60;;
39958;SDS011;25639;53.634;9.880;2023-02-23T14:14:47;69.07;;;19.63;;
39958;SDS011;25639;53.634;9.880;2023-02-23T14:19:42;65.63;;;18.85;;
39958;SDS011;25639;53.634;9.880;2023-02-23T14:22:33;65.13;;;17.70;;
39958;SDS011;25639;53.634;9.880;2023-02-23T14:27:59;67.60;;;18.20;;
39958;SDS011;25639;53.634;9.880;2023-02-23T14:30:46;61.05;;;18.13;;
39958;SDS011;25639;53.634;9.880;2023-02-23T14:33:32;55.58;;;16.38;;
39958;SDS011;25639;53.634;9.880;2023-02-23T14:38:44;55.67;;;16.00;;
39958;SDS011;25639;53.634;9.880;2023-02-23T14:41:10;50.35;;;15.98;;
39958;SDS011;25639;53.634;9.880;2023-02-23T14:46:02;53.47;;;15.25;;
39958;SDS011;25639;53.634;9.880;2023-02-23T14:48:29;50.70;;;15.18;;
39958;SDS011;25639;53.634;9.880;2023-02-23T14:53:50;55.00;;;15.88;;
39958;SDS011;25639;53.634;9.880;2023-02-23T14:56:21;60.15;;;17.83;;
39958;SDS011;25639;53.634;9.880;2023-02-23T14:58:51;57.30;;;15.80;;
39958;SDS011;25639;53.634;9.880;2023-02-23T15:01:35;60.53;;;16.48;;
39958;SDS011;25639;53.634;9.880;2023-02-23T15:04:06;59.45;;;17.02;;
39958;SDS011;25639;53.634;9.880;2023-02-23T15:06:37;67.43;;;17.48;;
39958;SDS011;25639;53.634;9.880;2023-02-23T15:09:05;55.35;;;17.27;;
39958;SDS011;25639;53.634;9.880;2023-02-23T15:11:32;60.42;;;17.52;;
39958;SDS011;25639;53.634;9.880;2023-02-23T15:13:58;71.70;;;18.55;;
39958;SDS011;25639;53.634;9.880;2023-02-23T15:16:28;63.08;;;16.80;;
39958;SDS011;25639;53.634;9.880;2023-02-23T15:18:58;71.50;;;18.50;;
39958;SDS011;25639;53.634;9.880;2023-02-23T15:21:26;64.15;;;18.15;;
39958;SDS011;25639;53.634;9.880;2023-02-23T15:23:57;66.82;;;17.85;;
39958;SDS011;25639;53.634;9.880;2023-02-23T15:31:46;74.05;;;19.73;;
39958;SDS011;25639;53.634;9.880;2023-02-23T15:37:02;78.80;;;20.20;;
39958;SDS011;25639;53.634;9.880;2023-02-23T15:39:32;79.45;;;20.15;;
39958;SDS011;25639;53.634;9.880;2023-02-23T15:42:04;82.07;;;19.60;;
39958;SDS011;25639;53.634;9.880;2023-02-23T15:44:32;79.72;;;20.17;;
39958;SDS011;25639;53.634;9.880;2023-02-23T15:46:59;76.35;;;20.08;;
39958;SDS011;25639;53.634;9.880;2023-02-23T15:49:28;83.80;;;19.60;;
39958;SDS011;25639;53.634;9.880;2023-02-23T15:52:05;72.40;;;18.45;;
39958;SDS011;25639;53.634;9.880;2023-02-23T15:54:33;86.07;;;19.40;;
39958;SDS011;25639;53.634;9.880;2023-02-23T15:57:13;77.55;;;20.17;;
39958;SDS011;25639;53.634;9.880;2023-02-23T15:59:52;69.13;;;17.67;;
39958;SDS011;25639;53.634;9.880;2023-02-23T16:02:22;72.15;;;16.75;;
39958;SDS011;25639;53.634;9.880;2023-02-23T16:04:48;50.97;;;14.38;;
39958;SDS011;25639;53.634;9.880;2023-02-23T16:07:23;54.60;;;13.98;;
39958;SDS011;25639;53.634;9.880;2023-02-23T16:09:54;63.53;;;14.20;;
39958;SDS011;25639;53.634;9.880;2023-02-23T16:12:28;50.58;;;11.43;;
39958;SDS011;25639;53.634;9.880;2023-02-23T16:14:57;43.65;;;10.80;;
39958;SDS011;25639;53.634;9.880;2023-02-23T16:22:58;56.97;;;7.65;;
39958;SDS011;25639;53.634;9.880;2023-02-23T16:25:27;60.05;;;9.18;;
39958;SDS011;25639;53.634;9.880;2023-02-23T16:28:04;43.88;;;8.43;;
39958;SDS011;25639;53.634;9.880;2023-02-23T16:30:40;58.28;;;10.65;;
39958;SDS011;25639;53.634;9.880;2023-02-23T16:33:10;62.55;;;9.93;;
39958;SDS011;25639;53.634;9.880;2023-02-23T16:35:43;75.40;;;10.77;;
39958;SDS011;25639;53.634;9.880;2023-02-23T16:38:12;55.35;;;10.88;;
39958;SDS011;25639;53.634;9.880;2023-02-23T16:40:42;56.63;;;10.85;;
39958;SDS011;25639;53.634;9.880;2023-02-23T16:43:07;59.47;;;10.65;;
39958;SDS011;25639;53.634;9.880;2023-02-23T16:45:33;46.10;;;8.15;;
39958;SDS011;25639;53.634;9.880;2023-02-23T16:48:07;44.67;;;5.47;;
39958;SDS011;25639;53.634;9.880;2023-02-23T16:50:37;34.20;;;5.03;;
39958;SDS011;25639;53.634;9.880;2023-02-23T16:53:04;30.73;;;4.72;;